Terminal Aerodrome Forecast
Issued by NWS

Home | Current Version | Previous Version | Text Only | Print | Product List | Glossary On
Versions: 1 2 3 4 5 6 7 8 9 10 11 12 13 14 15 16 17
000
FTUS46 KHNX 191751
TAFBFL
TAF
KBFL 191751Z 1918/2018 15006KT P6SM SCT035 BKN050
      TEMPO 1918/1919 5SM BR
     FM192000 30009KT P6SM SCT035 BKN050
     FM200600 14007KT 4SM BR OVC050
     FM201000 13015G21KT 6SM -RA BR OVC050=

USA.gov is the U.S. government's official web portal to all federal, state and local government web resources and services.